This is the latest recevied weather packets stored in our database for station/object EB5AGF-13. If no packets are shown the sender has not sent any weather packets the latest 10 day(s).
| Time | Temp. | Humidity | Pressure | Rain* | Wind** | Luminosity | Snow |
|---|---|---|---|---|---|---|---|
| 1778144245 | 15° C | 90% | 1009 hPa | 8.38 mm | 2.68 m/s, 6° | 39 W/m² | - |
| 1778143942 | 16.67° C | 86% | 1008.8 hPa | 1.02 mm | 0.89 m/s, 29° | 25 W/m² | - |
| 1778143638 | 17.78° C | 83% | 1008.7 hPa | 0 mm | 1.34 m/s, 16° | 36 W/m² | - |
| 1778143334 | 17.78° C | 81% | 1008.5 hPa | 0 mm | 1.79 m/s, 356° | 29 W/m² | - |
| 1778143030 | 18.33° C | 83% | 1008.6 hPa | 0 mm | 0 m/s | 16 W/m² | - |
| 1778142726 | 18.89° C | 82% | 1008.6 hPa | 0 mm | 0.89 m/s, 23° | 15 W/m² | - |
| 1778142421 | 18.89° C | 82% | 1008.2 hPa | 0 mm | 0.89 m/s, 345° | 41 W/m² | - |
| 1778142117 | 18.89° C | 81% | 1008.4 hPa | 0 mm | 1.79 m/s, 341° | 96 W/m² | - |
| 1778141814 | 18.89° C | 80% | 1008.7 hPa | 0 mm | 1.34 m/s, 321° | 150 W/m² | - |
| 1778141510 | 18.89° C | 80% | 1008.6 hPa | 0 mm | 0.89 m/s, 357° | 150 W/m² | - |
| 1778141207 | 18.89° C | 81% | 1008.5 hPa | 0 mm | 0.45 m/s, 340° | 211 W/m² | - |
| 1778140902 | 19.44° C | 80% | 1008.3 hPa | 0 mm | 0.89 m/s, 38° | 182 W/m² | - |
| 1778140599 | 20° C | 76% | 1008.5 hPa | 0 mm | 1.34 m/s, 21° | 154 W/m² | - |
| 1778140294 | 19.44° C | 76% | 1008.5 hPa | 0 mm | 0.89 m/s, 329° | 157 W/m² | - |
| 1778139991 | 18.89° C | 80% | 1008.8 hPa | 0 mm | 1.34 m/s, 130° | 143 W/m² | - |
| 1778139686 | 18.89° C | 81% | 1008.6 hPa | 0 mm | 1.34 m/s, 333° | 133 W/m² | - |
| 1778139382 | 18.89° C | 82% | 1008.6 hPa | 0 mm | 0.45 m/s, 41° | 145 W/m² | - |
| 1778139079 | 18.89° C | 81% | 1008.5 hPa | 0 mm | 1.79 m/s, 0° | 129 W/m² | - |
| 1778138774 | 18.89° C | 82% | 1008.3 hPa | 0 mm | 0.45 m/s, 28° | 121 W/m² | - |
| 1778138469 | 18.33° C | 83% | 1008.4 hPa | 0 mm | 0.89 m/s, 6° | 105 W/m² | - |
| 1778138166 | 18.33° C | 83% | 1008.4 hPa | 0 mm | 0.89 m/s, 16° | 94 W/m² | - |
| 1778137862 | 18.33° C | 83% | 1008.6 hPa | 0 mm | 2.68 m/s, 26° | 96 W/m² | - |
| 1778137558 | 18.33° C | 84% | 1008.6 hPa | 0 mm | 0.89 m/s, 348° | 78 W/m² | - |
| 1778137254 | 18.33° C | 84% | 1008.6 hPa | 0 mm | 0.89 m/s, 2° | 61 W/m² | - |
| 1778136950 | 18.33° C | 83% | 1008.4 hPa | 0 mm | 1.34 m/s, 1° | 66 W/m² | - |
* Rain latest hour (hover to see other rain measurements)
** Current wind speed in m/s (hover to see current wind gust speed)